Date,TemperatureHighF,TemperatureAvgF,TemperatureLowF,DewpointHighF,DewpointAvgF,DewpointLowF,HumidityHigh,HumidityAvg,HumidityLow,PressureMaxIn,PressureMinIn,WindSpeedMaxMPH,WindSpeedAvgMPH,GustSpeedMaxMPH,PrecipitationSumIn
2013-1-1,41.0,37.2,28.6,34.2,27.7,15.1,78,68,57,30.03,29.84,24,1,26,0.00
2013-1-2,32.2,29.5,25.5,22.3,19.6,14.5,74,66,59,30.19,30.02,23,-1,23,0.00
2013-1-3,30.7,27.4,21.7,23.4,19.8,15.6,83,73,65,30.23,30.09,22,-8,22,0.00
2013-1-4,37.9,34.9,28.8,29.5,26.6,20.8,81,72,65,30.10,29.95,19,-2,19,0.00
2013-1-5,42.1,37.2,33.1,33.3,28.6,25.0,79,71,62,30.31,29.99,19,-8,19,0.00
2013-1-6,42.1,38.4,34.0,37.6,33.3,25.2,92,82,68,30.27,30.01,12,-14,13,0.00
2013-1-7,40.8,38.5,32.7,35.6,30.8,25.0,84,74,62,30.45,30.05,18,-8,20,0.00
2013-1-8,48.4,41.4,34.2,38.8,34.8,27.7,90,78,58,30.48,30.38,15,-5,17,0.00
2013-1-9,49.5,43.9,34.9,42.8,37.5,31.1,88,78,65,30.43,30.13,17,-8,21,0.00
2013-1-10,46.4,42.5,39.6,37.9,33.7,28.8,79,71,61,30.59,30.20,18,-5,18,0.00
2013-1-11,46.0,41.2,34.0,45.5,37.1,27.5,98,85,71,30.58,30.17,10,-10,11,0.29
2013-1-12,46.2,43.6,41.5,46.0,43.3,41.2,100,99,98,30.21,30.12,12,-11,13,0.33
2013-1-13,50.7,44.8,39.6,50.7,44.7,39.4,100,99,99,30.22,30.05,8,-11,8,0.01
2013-1-14,50.9,45.7,37.8,50.7,43.3,33.1,100,92,69,30.31,30.04,25,-2,25,0.01
2013-1-15,39.4,38.3,35.6,35.1,31.8,29.5,90,77,69,30.37,30.26,16,-6,17,0.07
2013-1-16,38.3,36.7,34.3,37.6,35.6,30.6,98,96,78,30.27,29.82,17,-5,17,0.26
2013-1-17,41.9,39.1,34.0,36.9,33.0,23.5,100,79,66,30.13,29.93,20,-8,21,0.00
2013-1-18,34.0,27.1,23.9,25.9,13.8,7.5,72,57,42,30.54,30.04,29,-5,32,0.00
2013-1-19,49.1,41.0,26.1,37.8,30.5,13.3,78,66,51,30.48,29.98,23,-7,26,0.00
2013-1-20,54.0,44.6,33.6,38.5,32.9,19.0,78,64,48,30.03,29.70,22,-4,23,0.00
2013-1-21,33.4,30.1,27.9,28.4,21.0,12.4,95,70,49,30.15,29.83,16,-5,19,0.00
2013-1-22,28.4,22.9,16.9,26.8,12.1,3.4,95,63,53,30.18,29.82,26,1,27,0.00
2013-1-23,19.2,17.3,14.7,7.3,5.3,0.3,69,59,49,30.26,30.17,21,-4,21,0.00
2013-1-24,23.4,19.0,14.9,11.1,7.4,2.1,76,60,47,30.37,30.17,34,3,36,0.00
2013-1-25,24.1,20.9,16.7,22.1,12.4,7.2,92,70,57,30.43,30.09,20,-8,22,0.00
2013-1-26,25.9,22.6,19.0,21.9,13.8,7.9,91,69,52,30.36,30.06,34,-2,34,0.00
2013-1-27,32.5,27.3,21.2,16.5,13.2,7.5,75,56,38,30.54,30.35,31,-5,33,0.00
2013-1-28,35.6,31.9,24.3,34.9,24.9,11.3,97,78,47,30.52,30.04,10,-10,11,0.15
2013-1-29,39.9,36.4,34.2,39.2,35.0,33.3,100,95,87,30.23,30.03,9,-11,9,0.09
2013-1-30,60.1,53.7,39.6,57.0,52.3,38.5,100,95,88,30.17,29.50,36,-6,36,0.00
2013-1-31,59.5,44.6,32.7,57.2,36.2,20.7,100,73,54,29.76,29.13,35,0,35,0.00